Time;durP1;ratioP1;P1;durP2;ratioP2;P2;SDS_P1;SDS_P2;PMS_P1;PMS_P2;Temp;Humidity;BMP_temperature;BMP_pressure;BME280_temperature;BME280_humidity;BME280_pressure;Samples;Min_cycle;Max_cycle;Signal;HPM_P1;HPM_P2
2024/01/16 00:00:27;;;;;;;;;31.50;29.75;;;;;8.70;77.08;100730.31;2095577;28;45024;-65
2024/01/16 00:01:27;;;;;;;;;31.75;30.25;;;;;8.55;77.03;100729.63;2096295;28;46244;-65
2024/01/16 00:02:27;;;;;;;;;31.00;29.75;;;;;8.60;77.22;100729.56;2095944;28;46340;-67
2024/01/16 00:03:28;;;;;;;;;32.25;28.50;;;;;8.55;77.15;100720.81;2096275;28;46406;-66
2024/01/16 00:04:30;;;;;;;;;27.75;26.25;;;;;8.54;77.32;100727.00;2096369;28;46271;-66
2024/01/16 00:05:31;;;;;;;;;29.80;28.60;;;;;8.50;77.61;100726.16;2096108;28;45685;-67
2024/01/16 00:06:31;;;;;;;;;30.00;30.00;;;;;8.46;77.69;100721.81;2096053;28;46239;-66
2024/01/16 00:07:33;;;;;;;;;32.00;27.00;;;;;8.46;77.76;100727.09;2096525;28;45184;-66
2024/01/16 00:08:33;;;;;;;;;31.60;27.60;;;;;8.45;77.82;100721.84;2095343;28;46527;-67
2024/01/16 00:09:34;;;;;;;;;31.00;27.50;;;;;8.44;78.27;100728.03;2095549;28;46232;-67
2024/01/16 00:10:35;;;;;;;;;30.00;26.60;;;;;8.41;77.99;100721.00;2096391;28;47008;-68
2024/01/16 00:11:42;;;;;;;;;27.25;27.25;;;;;8.41;78.19;100717.50;2095440;28;46618;-67
2024/01/16 00:12:43;;;;;;;;;28.20;27.00;;;;;8.39;78.17;100722.81;2087965;28;46651;-67
2024/01/16 00:13:43;;;;;;;;;29.25;26.25;;;;;8.37;78.13;100724.56;2095679;28;46271;-67
2024/01/16 00:14:43;;;;;;;;;28.25;25.50;;;;;8.32;78.23;100721.09;2096673;28;46797;-67
2024/01/16 00:15:44;;;;;;;;;18.75;18.75;;;;;8.32;78.46;100720.22;2096054;28;46756;-67
2024/01/16 00:16:48;;;;;;;;;23.00;23.00;;;;;8.31;78.61;100724.63;2095964;28;47130;-66
2024/01/16 00:17:48;;;;;;;;;24.00;22.00;;;;;8.27;78.52;100715.00;2095802;28;46401;-67
2024/01/16 00:18:49;;;;;;;;;25.25;22.50;;;;;8.28;78.59;100706.16;2094662;28;46720;-67
2024/01/16 00:19:49;;;;;;;;;28.50;24.25;;;;;8.28;78.58;100714.09;2078754;28;46644;-67
2024/01/16 00:20:49;;;;;;;;;25.50;24.00;;;;;8.28;78.49;100708.81;2078631;28;46737;-66
2024/01/16 00:21:51;;;;;;;;;22.00;21.50;;;;;8.27;78.49;100709.69;2095901;28;46636;-66
2024/01/16 00:22:51;;;;;;;;;23.20;21.40;;;;;8.25;78.47;100707.03;2095158;28;45560;-66
2024/01/16 00:23:51;;;;;;;;;22.50;20.00;;;;;8.24;78.41;100707.94;2095712;28;46314;-66
2024/01/16 00:24:52;;;;;;;;;23.25;20.75;;;;;8.23;78.48;100707.97;2097142;28;45630;-67
2024/01/16 00:25:52;;;;;;;;;24.75;23.75;;;;;8.20;78.66;100698.31;2096573;28;46274;-66
2024/01/16 00:26:52;;;;;;;;;25.25;21.50;;;;;8.21;78.75;100705.34;2096617;28;45839;-66
2024/01/16 00:27:54;;;;;;;;;25.25;24.25;;;;;8.21;78.65;100705.34;2095864;28;46275;-66
2024/01/16 00:28:55;;;;;;;;;26.20;23.80;;;;;8.20;78.94;100703.59;2089250;28;46015;-66
2024/01/16 00:29:55;;;;;;;;;23.50;21.00;;;;;8.19;78.64;100704.50;2095392;28;46126;-66
2024/01/16 00:30:55;;;;;;;;;28.00;26.00;;;;;8.20;78.51;100705.38;2093051;28;46507;-65
2024/01/16 00:31:56;;;;;;;;;25.00;23.25;;;;;8.19;78.87;100706.25;2096692;28;46527;-66
2024/01/16 00:32:56;;;;;;;;;25.75;25.00;;;;;8.18;78.95;100704.53;2094250;28;46942;-67
2024/01/16 00:33:56;;;;;;;;;31.25;26.75;;;;;8.17;79.25;100703.66;2093779;28;46532;-67
2024/01/16 00:34:56;;;;;;;;;31.25;26.75;;;;;8.16;78.78;100704.53;2096424;28;45174;-66
2024/01/16 00:35:57;;;;;;;;;24.00;23.25;;;;;8.15;78.98;100699.28;2095084;28;46750;-65
2024/01/16 00:36:57;;;;;;;;;30.25;28.50;;;;;8.15;79.13;100708.06;2096348;28;45896;-66
2024/01/16 00:37:58;;;;;;;;;30.00;30.00;;;;;8.14;79.04;100708.09;2095823;28;47672;-65
2024/01/16 00:38:58;;;;;;;;;27.00;26.00;;;;;8.05;79.42;100708.19;2095198;28;46344;-66
2024/01/16 00:39:58;;;;;;;;;29.50;27.75;;;;;8.01;79.63;100701.22;2093164;28;46543;-65
2024/01/16 00:40:59;;;;;;;;;30.00;28.75;;;;;8.00;79.87;100707.34;2094511;28;46379;-66
2024/01/16 00:41:59;;;;;;;;;28.50;27.25;;;;;7.98;80.13;100710.91;2096442;28;46746;-65
2024/01/16 00:43:00;;;;;;;;;33.25;31.50;;;;;8.00;80.24;100718.81;2094993;28;46078;-66
2024/01/16 00:44:00;;;;;;;;;27.25;21.25;;;;;8.10;80.08;100715.16;2096233;28;46689;-66
2024/01/16 00:45:00;;;;;;;;;31.00;29.00;;;;;8.01;80.03;100711.78;2096358;28;46870;-66
2024/01/16 00:46:01;;;;;;;;;30.75;30.75;;;;;8.13;79.92;100711.59;2096153;28;45537;-67
2024/01/16 00:47:01;;;;;;;;;29.50;26.00;;;;;8.14;79.94;100706.34;2096040;28;46429;-67
2024/01/16 00:48:02;;;;;;;;;30.50;28.75;;;;;8.15;79.89;100705.44;2097636;28;46617;-66
2024/01/16 00:49:02;;;;;;;;;35.00;34.00;;;;;8.15;79.93;100704.56;2097171;28;46445;-67
2024/01/16 00:50:03;;;;;;;;;36.50;33.25;;;;;8.16;79.69;100706.31;2097432;28;46686;-66
2024/01/16 00:51:03;;;;;;;;;30.75;30.25;;;;;8.16;79.70;100711.59;2096780;28;45317;-67
2024/01/16 00:52:04;;;;;;;;;31.50;29.25;;;;;8.15;79.65;100708.06;2097291;28;46603;-66
2024/01/16 00:53:05;;;;;;;;;30.25;30.25;;;;;8.16;79.84;100719.53;2097015;28;46783;-65
2024/01/16 00:54:07;;;;;;;;;30.75;30.75;;;;;8.17;79.90;100716.00;2097536;28;45655;-66
2024/01/16 00:55:08;;;;;;;;;31.60;30.00;;;;;8.18;79.81;100712.44;2097282;28;46907;-66
2024/01/16 00:56:09;;;;;;;;;31.25;31.00;;;;;8.15;79.65;100708.06;2096936;28;46518;-66
2024/01/16 00:57:09;;;;;;;;;33.20;32.80;;;;;8.15;79.87;100704.56;2097500;28;47028;-66
2024/01/16 00:58:10;;;;;;;;;35.75;31.25;;;;;8.16;79.74;100703.66;2095247;28;47632;-67
2024/01/16 00:59:10;;;;;;;;;34.25;34.25;;;;;8.13;79.70;100703.69;2097726;28;46931;-66
2024/01/16 01:00:11;;;;;;;;;33.75;30.75;;;;;8.12;79.78;100700.16;2098249;28;45764;-68
2024/01/16 01:01:12;;;;;;;;;34.80;34.40;;;;;8.13;79.78;100706.31;2096826;28;46849;-66
2024/01/16 01:02:12;;;;;;;;;29.00;28.00;;;;;8.12;80.00;100702.81;2095964;28;46862;-66
2024/01/16 01:03:13;;;;;;;;;27.25;25.75;;;;;8.10;79.96;100704.59;2095346;28;46303;-65
2024/01/16 01:04:13;;;;;;;;;35.25;33.75;;;;;8.11;80.05;100705.47;2097648;28;46740;-66
2024/01/16 01:05:13;;;;;;;;;41.50;36.50;;;;;8.10;79.99;100699.31;2097445;28;46239;-67
2024/01/16 01:06:14;;;;;;;;;31.00;30.25;;;;;8.10;80.30;100701.09;2097836;28;46411;-66
2024/01/16 01:07:14;;;;;;;;;32.75;29.25;;;;;8.09;80.08;100700.22;2096543;28;46322;-66
2024/01/16 01:08:14;;;;;;;;;38.25;34.25;;;;;8.07;80.05;100694.06;2097453;28;46214;-66
2024/01/16 01:09:16;;;;;;;;;35.75;32.75;;;;;8.08;80.32;100697.59;2097569;28;46475;-66
2024/01/16 01:10:16;;;;;;;;;40.00;35.40;;;;;8.08;80.17;100700.22;2097731;28;48513;-66
2024/01/16 01:11:17;;;;;;;;;47.50;36.50;;;;;8.08;80.39;100698.47;2097585;28;46315;-65
2024/01/16 01:12:17;;;;;;;;;40.50;37.75;;;;;8.09;80.44;100702.84;2097679;28;46013;-66
2024/01/16 01:13:18;;;;;;;;;41.25;37.25;;;;;8.03;80.48;100697.66;2096397;28;47700;-66
2024/01/16 01:14:18;;;;;;;;;40.50;36.25;;;;;8.10;80.52;100706.38;2097404;28;46497;-67
2024/01/16 01:15:20;;;;;;;;;39.50;35.25;;;;;8.09;80.46;100705.50;2096174;28;46351;-65
2024/01/16 01:16:21;;;;;;;;;33.20;32.20;;;;;8.09;80.49;100699.34;2097389;28;46496;-66
2024/01/16 01:17:21;;;;;;;;;41.25;36.75;;;;;8.07;80.56;100687.91;2096928;28;46487;-66
2024/01/16 01:18:22;;;;;;;;;39.25;37.50;;;;;8.05;80.79;100682.66;2097380;28;46050;-66
2024/01/16 01:19:23;;;;;;;;;40.80;38.00;;;;;8.05;80.77;100684.41;2097008;28;46638;-67
2024/01/16 01:20:23;;;;;;;;;38.50;35.00;;;;;8.04;80.82;100682.66;2097711;28;47135;-66
2024/01/16 01:21:23;;;;;;;;;40.50;38.00;;;;;8.05;80.84;100679.13;2093564;28;45913;-66
2024/01/16 01:22:23;;;;;;;;;39.25;37.50;;;;;8.02;80.79;100679.16;2094454;28;46325;-66
2024/01/16 01:23:24;;;;;;;;;39.25;36.25;;;;;8.02;80.96;100687.09;2097484;28;46682;-66
2024/01/16 01:24:24;;;;;;;;;37.75;34.50;;;;;7.98;80.96;100684.47;2097252;28;45756;-66
2024/01/16 01:25:26;;;;;;;;;40.25;35.75;;;;;7.98;81.19;100683.59;2097427;28;46241;-66
2024/01/16 01:26:26;;;;;;;;;40.20;36.60;;;;;8.00;81.17;100688.84;2097361;28;46614;-66
2024/01/16 01:27:26;;;;;;;;;40.75;37.00;;;;;7.99;81.17;100680.06;2096854;28;45576;-66
2024/01/16 01:28:26;;;;;;;;;37.00;33.50;;;;;7.98;81.28;100684.47;2097156;28;45532;-67
2024/01/16 01:29:27;;;;;;;;;38.50;35.75;;;;;7.97;81.29;100684.50;2097028;28;46403;-66
2024/01/16 01:30:27;;;;;;;;;44.00;39.25;;;;;7.96;81.25;100688.03;2093114;28;45196;-66
2024/01/16 01:31:27;;;;;;;;;36.50;35.75;;;;;7.95;81.32;100686.28;2097043;28;46676;-66
2024/01/16 01:32:28;;;;;;;;;35.75;33.75;;;;;7.94;81.46;100687.19;2096893;28;46758;-66
2024/01/16 01:33:28;;;;;;;;;34.75;34.00;;;;;7.94;81.68;100695.97;2091791;28;46768;-66
2024/01/16 01:34:28;;;;;;;;;46.75;39.50;;;;;7.95;81.53;100688.94;2087946;28;46821;-66
2024/01/16 01:35:29;;;;;;;;;45.00;40.00;;;;;7.93;81.50;100688.94;2097028;28;44967;-67
2024/01/16 01:36:29;;;;;;;;;37.00;35.75;;;;;7.89;81.72;100684.59;2096319;28;46528;-67
2024/01/16 01:37:29;;;;;;;;;42.25;38.25;;;;;7.89;81.68;100689.00;2096638;28;45977;-67
2024/01/16 01:38:30;;;;;;;;;45.00;39.25;;;;;7.86;81.90;100687.25;2096434;28;46441;-66
2024/01/16 01:39:30;;;;;;;;;42.50;39.00;;;;;7.85;81.93;100693.44;2096953;28;46718;-66
2024/01/16 01:40:31;;;;;;;;;34.50;33.50;;;;;7.84;82.01;100696.97;2096898;28;46825;-66
2024/01/16 01:41:31;;;;;;;;;36.25;31.00;;;;;7.84;82.12;100688.16;2096689;28;46439;-67
2024/01/16 01:42:31;;;;;;;;;46.00;38.00;;;;;7.82;82.10;100701.41;2096770;28;46199;-66
2024/01/16 01:43:32;;;;;;;;;41.00;36.25;;;;;7.82;82.11;100695.25;2096771;28;46146;-67
2024/01/16 01:44:32;;;;;;;;;44.50;38.25;;;;;7.80;82.25;100702.31;2096875;28;46634;-67
2024/01/16 01:45:32;;;;;;;;;41.75;36.00;;;;;7.78;82.50;100706.75;2097330;28;45728;-67
2024/01/16 01:46:34;;;;;;;;;41.25;37.75;;;;;7.76;82.56;100712.03;2097445;28;45871;-67
2024/01/16 01:47:35;;;;;;;;;0.00;0.00;;;;;7.76;82.56;100711.16;2092252;28;47083;-68
2024/01/16 01:48:37;;;;;;;;;44.00;37.75;;;;;7.76;82.62;100711.16;2097606;28;45946;-67
2024/01/16 01:49:38;;;;;;;;;38.60;35.80;;;;;7.76;82.57;100719.97;2104083;28;46192;-68
2024/01/16 01:50:39;;;;;;;;;42.60;37.20;;;;;7.76;82.72;100714.69;2097323;28;46256;-67
2024/01/16 01:51:39;;;;;;;;;38.25;34.00;;;;;7.76;82.96;100719.97;2097033;28;46294;-67
2024/01/16 01:52:41;;;;;;;;;34.50;32.50;;;;;7.77;82.66;100724.34;2097629;28;46169;-66
2024/01/16 01:53:43;;;;;;;;;40.40;37.80;;;;;7.79;82.63;100726.97;2097394;28;46748;-67
2024/01/16 01:54:45;;;;;;;;;36.00;34.60;;;;;7.78;82.76;100730.50;2096505;28;46403;-67
2024/01/16 01:55:46;;;;;;;;;39.80;35.40;;;;;7.78;82.59;100735.78;2095167;28;46164;-67
2024/01/16 01:56:48;;;;;;;;;39.80;37.20;;;;;7.79;82.84;100729.63;2096994;28;46957;-67
2024/01/16 01:57:49;;;;;;;;;34.20;31.80;;;;;7.83;82.52;100731.31;2097279;28;45079;-66
2024/01/16 01:58:54;;;;;;;;;37.75;34.50;;;;;7.83;82.48;100737.50;2095809;28;45059;-66
2024/01/16 01:59:55;;;;;;;;;36.80;33.40;;;;;7.80;82.24;100726.97;2096062;28;46902;-65
2024/01/16 02:00:56;;;;;;;;;37.20;34.60;;;;;7.81;82.21;100734.00;2097316;28;47001;-67
2024/01/16 02:01:56;;;;;;;;;34.25;33.25;;;;;7.80;82.26;100732.25;2097082;28;45095;-67
2024/01/16 02:02:57;;;;;;;;;35.75;33.75;;;;;7.74;82.02;100731.41;2097085;28;45673;-67
2024/01/16 02:03:59;;;;;;;;;33.25;32.00;;;;;7.79;82.22;100725.22;2096553;28;46551;-67
2024/01/16 02:04:59;;;;;;;;;37.60;36.00;;;;;7.81;81.87;100725.19;2096826;28;45878;-66
2024/01/16 02:06:00;;;;;;;;;40.00;34.75;;;;;7.80;81.79;100726.09;2097215;28;46239;-66
2024/01/16 02:07:00;;;;;;;;;36.25;34.50;;;;;7.68;81.91;100727.06;2096947;28;46460;-67
2024/01/16 02:08:02;;;;;;;;;37.00;35.00;;;;;7.71;82.26;100728.81;2096971;28;46285;-66
2024/01/16 02:09:06;;;;;;;;;36.60;35.00;;;;;7.64;82.45;100723.59;2096881;28;46582;-67
2024/01/16 02:10:07;;;;;;;;;37.20;32.60;;;;;7.66;82.67;100720.94;2097004;28;46910;-66
2024/01/16 02:11:08;;;;;;;;;35.25;32.25;;;;;7.66;82.68;100724.47;2095481;28;45167;-66
2024/01/16 02:12:08;;;;;;;;;38.00;35.20;;;;;7.65;82.46;100727.13;2096035;28;46901;-66
2024/01/16 02:13:09;;;;;;;;;38.25;37.00;;;;;7.71;82.72;100726.16;2095888;28;46879;-67
2024/01/16 02:14:09;;;;;;;;;42.25;36.75;;;;;7.65;82.71;100728.00;2097336;28;45943;-66
2024/01/16 02:15:10;;;;;;;;;38.25;36.00;;;;;7.66;82.62;100726.22;2096965;28;47628;-66
2024/01/16 02:16:20;;;;;;;;;41.75;38.00;;;;;7.74;82.96;100721.72;2096943;28;47014;-66
2024/01/16 02:17:21;;;;;;;;;37.80;36.20;;;;;7.75;82.64;100707.66;2096816;28;47055;-66
2024/01/16 02:18:22;;;;;;;;;39.75;38.00;;;;;7.66;82.54;100713.91;2096769;28;47171;-67
2024/01/16 02:19:23;;;;;;;;;41.50;37.25;;;;;7.65;82.78;100713.91;2096389;28;46633;-66
2024/01/16 02:20:23;;;;;;;;;43.00;39.60;;;;;7.67;82.86;100714.78;2096464;28;45802;-67
2024/01/16 02:21:28;;;;;;;;;43.00;38.00;;;;;7.65;82.80;100716.56;2096139;28;46663;-68
2024/01/16 02:22:31;;;;;;;;;42.20;37.80;;;;;7.63;82.93;100710.41;2096495;28;46350;-66
2024/01/16 02:23:32;;;;;;;;;39.40;36.20;;;;;7.61;82.96;100704.25;2097144;28;45896;-67
2024/01/16 02:24:33;;;;;;;;;39.20;37.60;;;;;7.60;82.92;100707.78;2096529;28;46583;-66
2024/01/16 02:25:33;;;;;;;;;38.75;35.25;;;;;7.67;83.23;100705.06;2096962;28;46491;-66
2024/01/16 02:26:33;;;;;;;;;41.00;34.50;;;;;7.71;82.79;100708.56;2097288;28;46684;-67
2024/01/16 02:27:34;;;;;;;;;38.50;36.50;;;;;7.73;82.76;100703.25;2096650;28;46278;-66
2024/01/16 02:28:34;;;;;;;;;39.25;38.00;;;;;7.71;82.44;100700.63;2095649;28;46588;-67
2024/01/16 02:29:40;;;;;;;;;40.75;35.75;;;;;7.66;82.63;100703.31;2096862;28;46527;-67
2024/01/16 02:30:42;;;;;;;;;36.60;34.40;;;;;7.65;83.10;100698.94;2096883;28;46864;-67
2024/01/16 02:31:42;;;;;;;;;38.40;35.80;;;;;7.60;83.15;100695.44;2097075;28;46806;-66
2024/01/16 02:32:42;;;;;;;;;41.50;37.00;;;;;7.59;83.14;100698.97;2093559;28;46527;-67
2024/01/16 02:33:43;;;;;;;;;37.25;36.50;;;;;7.62;83.55;100700.72;2093488;28;46745;-67
2024/01/16 02:34:43;;;;;;;;;40.25;38.00;;;;;7.62;83.02;100695.44;2096694;28;46403;-67
2024/01/16 02:35:43;;;;;;;;;43.25;39.00;;;;;7.52;83.16;100693.78;2096806;28;46549;-67
2024/01/16 02:36:44;;;;;;;;;32.50;32.25;;;;;7.60;82.88;100691.94;2097380;28;46322;-66
2024/01/16 02:37:44;;;;;;;;;32.75;32.75;;;;;7.54;83.23;100694.66;2097010;28;46574;-66
2024/01/16 02:38:44;;;;;;;;;45.75;38.00;;;;;7.52;83.51;100689.38;2094829;28;46405;-67
2024/01/16 02:39:45;;;;;;;;;42.50;36.50;;;;;7.50;83.64;100691.16;2097008;28;46277;-67
2024/01/16 02:40:45;;;;;;;;;41.00;38.00;;;;;7.52;83.74;100694.66;2094250;28;46136;-67
2024/01/16 02:41:46;;;;;;;;;40.25;36.75;;;;;7.51;83.86;100689.41;2097145;28;46296;-67
2024/01/16 02:42:46;;;;;;;;;44.25;39.25;;;;;7.50;83.92;100696.44;2097239;28;45740;-67
2024/01/16 02:43:47;;;;;;;;;39.25;36.50;;;;;7.46;83.71;100694.72;2096510;28;47208;-67
2024/01/16 02:44:47;;;;;;;;;39.75;37.75;;;;;7.44;83.64;100685.94;2095713;28;46480;-66
2024/01/16 02:45:47;;;;;;;;;42.25;38.50;;;;;7.45;83.93;100687.69;2096955;28;46271;-67
2024/01/16 02:46:48;;;;;;;;;41.25;38.00;;;;;7.45;84.12;100687.69;2096356;28;46843;-67
2024/01/16 02:47:48;;;;;;;;;40.00;37.00;;;;;7.47;84.01;100685.91;2096952;28;46881;-67
2024/01/16 02:48:49;;;;;;;;;38.00;36.25;;;;;7.55;83.93;100684.06;2096906;28;45613;-67
2024/01/16 02:49:49;;;;;;;;;38.50;37.50;;;;;7.54;83.75;100674.41;2096615;28;46725;-66
2024/01/16 02:50:49;;;;;;;;;41.25;38.00;;;;;7.52;83.91;100678.81;2096583;28;46285;-67
2024/01/16 02:51:49;;;;;;;;;40.00;37.25;;;;;7.49;83.87;100677.97;2095958;28;46455;-67
2024/01/16 02:52:50;;;;;;;;;46.00;37.75;;;;;7.48;84.19;100679.72;2096433;28;45711;-66
2024/01/16 02:53:51;;;;;;;;;38.50;36.25;;;;;7.51;84.44;100681.47;2095229;28;46625;-66
2024/01/16 02:54:51;;;;;;;;;43.50;36.00;;;;;7.48;84.22;100673.56;2096763;28;46770;-65
2024/01/16 02:55:51;;;;;;;;;41.25;38.25;;;;;7.54;84.32;100678.81;2096172;28;46288;-66
2024/01/16 02:56:52;;;;;;;;;40.25;36.50;;;;;7.49;84.05;100670.03;2099319;28;46664;-67
2024/01/16 02:57:52;;;;;;;;;43.75;39.25;;;;;7.52;84.46;100670.03;2095742;28;45577;-66
2024/01/16 02:58:52;;;;;;;;;42.75;38.25;;;;;7.57;84.20;100669.06;2096234;28;46309;-66
2024/01/16 02:59:53;;;;;;;;;43.25;38.00;;;;;7.58;83.81;100673.47;2095437;28;46679;-67
2024/01/16 03:00:53;;;;;;;;;45.00;40.00;;;;;7.58;83.79;100668.19;2097249;28;45549;-66
2024/01/16 03:01:53;;;;;;;;;42.25;38.50;;;;;7.57;83.84;100674.34;2095996;28;46607;-67
2024/01/16 03:02:54;;;;;;;;;44.75;40.50;;;;;7.58;83.81;100668.19;2096602;28;45492;-66
2024/01/16 03:03:54;;;;;;;;;45.25;40.25;;;;;7.55;83.64;100672.63;2096513;28;46659;-67
2024/01/16 03:04:55;;;;;;;;;42.75;39.25;;;;;7.50;83.87;100667.41;2096512;28;46568;-65
2024/01/16 03:05:56;;;;;;;;;42.75;37.25;;;;;7.57;83.94;100665.56;2096464;28;46530;-67
2024/01/16 03:06:56;;;;;;;;;42.80;39.20;;;;;7.59;84.15;100662.00;2094811;28;46639;-66
2024/01/16 03:07:56;;;;;;;;;49.50;40.25;;;;;7.59;83.89;100661.13;2087786;28;46351;-66
2024/01/16 03:08:57;;;;;;;;;41.75;36.00;;;;;7.51;84.00;100661.22;2088737;28;47284;-66
2024/01/16 03:09:57;;;;;;;;;48.00;40.50;;;;;7.49;84.05;100665.63;2095382;28;46466;-66
2024/01/16 03:10:57;;;;;;;;;42.50;38.25;;;;;7.46;84.21;100667.44;2095532;28;45037;-66
2024/01/16 03:11:59;;;;;;;;;47.00;39.00;;;;;7.45;84.35;100655.13;2095705;28;45898;-66
2024/01/16 03:13:00;;;;;;;;;45.20;40.60;;;;;7.45;84.46;100652.47;2096655;28;46872;-66
2024/01/16 03:14:00;;;;;;;;;39.00;35.75;;;;;7.45;84.62;100656.00;2096831;28;46657;-66
2024/01/16 03:15:01;;;;;;;;;41.50;38.50;;;;;7.44;84.49;100650.72;2096577;28;46640;-66
2024/01/16 03:16:06;;;;;;;;;45.25;39.25;;;;;7.47;84.61;100655.97;2095129;28;46978;-66
2024/01/16 03:17:07;;;;;;;;;41.80;38.40;;;;;7.44;84.73;100650.72;2096661;28;46263;-67
2024/01/16 03:18:07;;;;;;;;;39.25;36.00;;;;;7.41;84.74;100654.28;2095855;28;46644;-66
2024/01/16 03:19:07;;;;;;;;;40.25;38.00;;;;;7.46;84.71;100652.47;2095979;28;46649;-66
2024/01/16 03:20:08;;;;;;;;;44.75;38.75;;;;;7.49;84.59;100652.44;2096290;28;46241;-66
2024/01/16 03:21:10;;;;;;;;;49.60;40.40;;;;;7.49;84.40;100649.78;2096372;28;47160;-67
2024/01/16 03:22:11;;;;;;;;;39.60;37.20;;;;;7.51;84.37;100649.81;2096080;28;45676;-66
2024/01/16 03:23:11;;;;;;;;;11.50;7.00;;;;;7.52;84.34;100654.19;2095058;28;45082;-66
2024/01/16 03:24:11;;;;;;;;;42.75;38.50;;;;;7.51;84.29;100644.53;2096751;28;44926;-66
2024/01/16 03:25:12;;;;;;;;;39.25;37.25;;;;;7.50;84.05;100654.22;2096380;28;46646;-66
2024/01/16 03:26:13;;;;;;;;;48.00;40.75;;;;;7.49;84.04;100651.56;2096690;28;45747;-66
2024/01/16 03:27:14;;;;;;;;;41.20;37.40;;;;;7.48;84.05;100653.31;2096974;28;45870;-66
2024/01/16 03:28:14;;;;;;;;;42.25;39.25;;;;;7.47;84.22;100648.94;2096299;28;45788;-66
2024/01/16 03:29:15;;;;;;;;;42.00;38.25;;;;;7.46;84.30;100647.19;2096138;28;45593;-66
2024/01/16 03:30:15;;;;;;;;;44.25;39.25;;;;;7.46;84.14;100659.50;2096082;28;46218;-67
2024/01/16 03:31:15;;;;;;;;;42.00;36.50;;;;;7.47;84.35;100645.41;2095142;28;46329;-65
2024/01/16 03:32:16;;;;;;;;;39.75;37.25;;;;;7.45;84.15;100657.75;2096613;28;45102;-67
2024/01/16 03:33:16;;;;;;;;;42.25;39.00;;;;;7.44;84.18;100650.72;2095586;28;46357;-67
2024/01/16 03:34:16;;;;;;;;;41.00;37.75;;;;;7.42;84.28;100642.84;2096684;28;46145;-67
2024/01/16 03:35:17;;;;;;;;;43.00;37.50;;;;;7.43;84.13;100649.00;2096137;28;46328;-67
2024/01/16 03:36:17;;;;;;;;;38.00;34.50;;;;;7.42;83.88;100650.75;2096191;28;46555;-66
2024/01/16 03:37:17;;;;;;;;;40.75;36.75;;;;;7.44;84.03;100656.00;2096382;28;46808;-67
2024/01/16 03:38:18;;;;;;;;;42.75;37.25;;;;;7.43;83.98;100651.63;2097001;28;45849;-67
2024/01/16 03:39:18;;;;;;;;;40.00;36.00;;;;;7.44;84.23;100653.38;2096776;28;46606;-66
2024/01/16 03:40:18;;;;;;;;;37.75;34.50;;;;;7.45;83.96;100655.13;2096170;28;46823;-67
2024/01/16 03:41:19;;;;;;;;;39.00;36.00;;;;;7.44;83.87;100659.53;2096549;28;45521;-66
2024/01/16 03:42:19;;;;;;;;;37.25;36.25;;;;;7.44;84.19;100656.00;2096533;28;46349;-67
2024/01/16 03:43:19;;;;;;;;;40.25;37.00;;;;;7.41;84.08;100658.69;2089987;28;46210;-66
2024/01/16 03:44:20;;;;;;;;;42.50;36.50;;;;;7.41;84.24;100649.00;2094759;28;46216;-66
2024/01/16 03:45:20;;;;;;;;;43.25;36.25;;;;;7.41;84.28;100648.13;2096461;28;45392;-66
2024/01/16 03:46:20;;;;;;;;;40.75;37.25;;;;;7.43;nan;100641.06;2093270;28;46725;-66
2024/01/16 03:47:21;;;;;;;;;35.75;32.00;;;;;7.42;84.15;100649.88;2092524;28;46655;-67
2024/01/16 03:48:21;;;;;;;;;42.50;39.00;;;;;7.31;84.46;100645.56;2095337;28;47328;-67
2024/01/16 03:49:21;;;;;;;;;40.50;37.75;;;;;7.30;84.44;100651.75;2096259;28;46310;-67
2024/01/16 03:50:22;;;;;;;;;40.25;35.25;;;;;7.37;84.98;100639.38;2096353;28;46266;-66
2024/01/16 03:51:22;;;;;;;;;47.25;40.75;;;;;7.40;84.76;100647.25;2096907;28;46134;-67
2024/01/16 03:52:22;;;;;;;;;43.75;39.25;;;;;7.40;84.52;100636.69;2095253;28;46422;-66
2024/01/16 03:53:23;;;;;;;;;42.25;37.00;;;;;7.41;84.49;100642.84;2096416;28;46347;-66
2024/01/16 03:54:23;;;;;;;;;48.25;42.00;;;;;7.41;84.36;100637.56;2096696;28;45843;-67
2024/01/16 03:55:23;;;;;;;;;49.25;40.75;;;;;7.40;84.16;100641.09;2096275;28;46292;-66
2024/01/16 03:56:24;;;;;;;;;44.25;40.00;;;;;7.40;84.43;100646.38;2096378;28;46244;-66
2024/01/16 03:57:24;;;;;;;;;53.75;44.25;;;;;7.40;84.46;100644.63;2096368;28;46161;-66
2024/01/16 03:58:25;;;;;;;;;52.00;42.75;;;;;7.35;84.26;100643.78;2096546;28;46449;-66
2024/01/16 03:59:25;;;;;;;;;54.75;46.00;;;;;7.30;84.82;100643.81;2096542;28;46122;-66
2024/01/16 04:00:25;;;;;;;;;51.00;40.25;;;;;7.28;84.56;100645.59;2096169;28;46858;-66
2024/01/16 04:01:33;;;;;;;;;50.75;44.25;;;;;7.32;84.79;100642.03;2088776;28;45207;-66
2024/01/16 04:02:34;;;;;;;;;52.00;44.20;;;;;7.31;84.50;100645.56;2096380;28;45820;-66
2024/01/16 04:03:38;;;;;;;;;49.75;44.00;;;;;7.33;84.66;100643.78;2096006;28;46342;-66
2024/01/16 04:04:39;;;;;;;;;53.60;43.00;;;;;7.24;84.49;100641.25;2095372;28;46872;-66
2024/01/16 04:05:39;;;;;;;;;59.50;48.75;;;;;7.23;84.62;100638.59;2096513;28;46561;-66
2024/01/16 04:06:40;;;;;;;;;55.50;47.00;;;;;7.21;84.69;100643.91;2096568;28;45758;-67
2024/01/16 04:07:40;;;;;;;;;54.00;45.50;;;;;7.19;84.86;100643.03;2096522;28;45660;-66
2024/01/16 04:08:40;;;;;;;;;53.75;46.25;;;;;7.20;85.02;100649.19;2095995;28;46488;-66
2024/01/16 04:09:42;;;;;;;;;56.00;46.75;;;;;7.20;85.18;100643.91;2096172;28;46889;-67
2024/01/16 04:10:43;;;;;;;;;56.80;47.40;;;;;7.18;85.16;100649.22;2095975;28;46922;-66
2024/01/16 04:11:43;;;;;;;;;54.50;46.25;;;;;7.18;84.93;100645.69;2096369;28;46235;-66
2024/01/16 04:12:44;;;;;;;;;56.00;47.25;;;;;7.17;85.04;100643.97;2088267;28;46736;-67
2024/01/16 04:13:45;;;;;;;;;55.50;44.00;;;;;7.18;84.90;100643.94;2096284;28;46606;-66
2024/01/16 04:14:45;;;;;;;;;59.00;48.00;;;;;7.16;84.73;100642.22;2095998;28;46351;-66
2024/01/16 04:15:46;;;;;;;;;54.75;46.00;;;;;7.15;84.66;100645.75;2096128;28;46448;-66
2024/01/16 04:16:46;;;;;;;;;55.75;47.50;;;;;7.12;84.98;100640.50;2096080;28;46513;-66
2024/01/16 04:17:46;;;;;;;;;58.25;48.50;;;;;7.10;85.09;100640.47;2095674;28;46208;-66
2024/01/16 04:18:47;;;;;;;;;59.50;49.25;;;;;7.15;85.15;100641.34;2096042;28;46615;-67
2024/01/16 04:19:47;;;;;;;;;58.00;48.25;;;;;7.20;84.72;100647.44;2096175;28;46442;-67
2024/01/16 04:20:48;;;;;;;;;56.25;47.50;;;;;7.16;84.27;100644.84;2088878;28;45071;-66
2024/01/16 04:21:48;;;;;;;;;62.50;52.00;;;;;7.23;84.36;100641.25;2094068;28;46761;-67
2024/01/16 04:22:48;;;;;;;;;29.75;27.25;;;;;7.10;84.46;100643.13;2096962;28;45475;-67
2024/01/16 04:23:49;;;;;;;;;66.50;52.00;;;;;7.07;84.28;100637.88;2097666;28;46406;-67
2024/01/16 04:24:49;;;;;;;;;62.25;51.00;;;;;7.08;84.41;100636.97;2097421;28;46327;-66
2024/01/16 04:25:49;;;;;;;;;60.50;51.75;;;;;7.05;84.45;100629.97;2098097;28;45022;-66
2024/01/16 04:26:50;;;;;;;;;64.00;51.25;;;;;7.05;84.72;100629.09;2097927;28;46777;-66
2024/01/16 04:27:50;;;;;;;;;58.75;49.50;;;;;7.05;85.04;100629.97;2097403;28;46933;-67
2024/01/16 04:28:51;;;;;;;;;60.75;50.75;;;;;7.18;84.48;100632.50;2097649;28;46867;-66
2024/01/16 04:29:51;;;;;;;;;56.75;47.25;;;;;7.09;84.39;100628.19;2097466;28;46744;-65
2024/01/16 04:30:52;;;;;;;;;61.75;49.25;;;;;7.06;84.50;100626.44;2097709;28;46357;-66
2024/01/16 04:31:53;;;;;;;;;55.50;46.25;;;;;7.05;84.55;100624.69;2097792;28;46516;-67
2024/01/16 04:32:53;;;;;;;;;56.00;47.60;;;;;7.05;84.49;100629.97;2096414;28;46528;-66
2024/01/16 04:33:53;;;;;;;;;54.75;45.50;;;;;7.04;84.64;100625.59;2094907;28;46266;-66
2024/01/16 04:34:53;;;;;;;;;54.25;45.50;;;;;7.04;84.47;100611.53;2097697;28;46465;-67
2024/01/16 04:35:55;;;;;;;;;57.75;48.00;;;;;7.04;84.54;100620.31;2097289;28;46626;-66
2024/01/16 04:36:56;;;;;;;;;54.40;46.00;;;;;7.03;84.41;100615.06;2088136;28;46029;-66
2024/01/16 04:37:56;;;;;;;;;47.25;40.00;;;;;7.00;84.58;100610.69;2099074;28;46530;-66
2024/01/16 04:38:56;;;;;;;;;57.50;46.00;;;;;7.04;84.70;100614.16;2097768;28;46778;-66